Weather at Dynamic Guesthouse Heliports

Public forecast

Using degrees Celsius for public forecast. Weather courtesy of forecast.io.

Closest aviation weather report (METAR) to Dynamic Guesthouse Heliports

Closest report is Gimhae International Airport, 6.1 nm (11.4 km) WNW. Retrieved 2020/09/21 03:00 UTC (12 minutes ago):

RKPK 210300Z 36003KT 9999 FEW030 BKN200 24/08 Q1018

Closest aviation forecast (TAF) to Dynamic Guesthouse Heliports

Closest forecast is Gimhae International Airport, 6.1 nm (11.4 km) WNW. Retrieved 2020-09-21 00:00 UTC (3 hours ago):

TAF RKPK 202300Z 2100/2206 03006KT CAVOK TX26/2106Z TN14/2121Z BECMG 2104/2105 03010KT BECMG 2109/2110 03006KT